sensor_id;sensor_type;location;lat;lon;timestamp;temperature;humidity
5578;DHT22;2811;51.900;10.734;2023-11-19T00:02:19;7.80;99.90
5578;DHT22;2811;51.900;10.734;2023-11-19T00:04:46;7.70;99.90
5578;DHT22;2811;51.900;10.734;2023-11-19T00:07:12;7.80;99.90
5578;DHT22;2811;51.900;10.734;2023-11-19T00:09:39;7.50;99.90
5578;DHT22;2811;51.900;10.734;2023-11-19T00:12:08;7.70;99.90
5578;DHT22;2811;51.900;10.734;2023-11-19T00:14:35;7.80;99.90
5578;DHT22;2811;51.900;10.734;2023-11-19T00:17:02;7.80;99.90
5578;DHT22;2811;51.900;10.734;2023-11-19T00:19:29;7.80;99.90
5578;DHT22;2811;51.900;10.734;2023-11-19T00:21:56;8.00;99.90
5578;DHT22;2811;51.900;10.734;2023-11-19T00:24:25;7.80;99.90
5578;DHT22;2811;51.900;10.734;2023-11-19T00:26:51;7.70;99.90
5578;DHT22;2811;51.900;10.734;2023-11-19T00:29:20;7.80;99.90
5578;DHT22;2811;51.900;10.734;2023-11-19T00:31:46;8.00;99.90
5578;DHT22;2811;51.900;10.734;2023-11-19T00:34:13;8.10;99.90
5578;DHT22;2811;51.900;10.734;2023-11-19T00:36:40;7.90;99.90
5578;DHT22;2811;51.900;10.734;2023-11-19T00:39:07;8.00;99.90
5578;DHT22;2811;51.900;10.734;2023-11-19T00:41:34;8.10;99.90
5578;DHT22;2811;51.900;10.734;2023-11-19T00:44:00;8.20;99.90
5578;DHT22;2811;51.900;10.734;2023-11-19T00:46:28;8.20;99.90
5578;DHT22;2811;51.900;10.734;2023-11-19T00:48:56;8.40;99.90
5578;DHT22;2811;51.900;10.734;2023-11-19T00:51:25;8.60;99.90
5578;DHT22;2811;51.900;10.734;2023-11-19T00:53:52;8.40;99.90
5578;DHT22;2811;51.900;10.734;2023-11-19T00:56:19;8.50;99.90
5578;DHT22;2811;51.900;10.734;2023-11-19T00:58:45;8.90;99.90
5578;DHT22;2811;51.900;10.734;2023-11-19T01:01:13;8.80;99.90
5578;DHT22;2811;51.900;10.734;2023-11-19T01:03:41;8.80;99.90
5578;DHT22;2811;51.900;10.734;2023-11-19T01:06:08;8.70;99.90
5578;DHT22;2811;51.900;10.734;2023-11-19T01:08:35;8.70;99.90
5578;DHT22;2811;51.900;10.734;2023-11-19T01:11:02;8.80;99.90
5578;DHT22;2811;51.900;10.734;2023-11-19T01:13:29;8.80;99.90
5578;DHT22;2811;51.900;10.734;2023-11-19T01:15:56;8.70;99.90
5578;DHT22;2811;51.900;10.734;2023-11-19T01:18:23;8.70;99.90
5578;DHT22;2811;51.900;10.734;2023-11-19T01:20:51;8.70;99.90
5578;DHT22;2811;51.900;10.734;2023-11-19T01:23:18;8.80;99.90
5578;DHT22;2811;51.900;10.734;2023-11-19T01:25:44;8.70;99.90
5578;DHT22;2811;51.900;10.734;2023-11-19T01:28:11;8.70;99.90
5578;DHT22;2811;51.900;10.734;2023-11-19T01:30:38;8.40;99.90
5578;DHT22;2811;51.900;10.734;2023-11-19T01:33:06;8.40;99.90
5578;DHT22;2811;51.900;10.734;2023-11-19T01:35:33;8.30;99.90
5578;DHT22;2811;51.900;10.734;2023-11-19T01:38:01;8.50;99.90
5578;DHT22;2811;51.900;10.734;2023-11-19T01:40:28;8.50;99.90
5578;DHT22;2811;51.900;10.734;2023-11-19T01:42:55;8.60;99.90
5578;DHT22;2811;51.900;10.734;2023-11-19T01:45:27;8.60;99.90
5578;DHT22;2811;51.900;10.734;2023-11-19T01:47:55;8.70;99.90
5578;DHT22;2811;51.900;10.734;2023-11-19T01:50:22;9.10;99.90
5578;DHT22;2811;51.900;10.734;2023-11-19T01:52:50;9.10;99.90
5578;DHT22;2811;51.900;10.734;2023-11-19T01:55:19;9.20;99.90
5578;DHT22;2811;51.900;10.734;2023-11-19T01:57:48;9.40;99.90
5578;DHT22;2811;51.900;10.734;2023-11-19T02:00:15;9.50;99.90
5578;DHT22;2811;51.900;10.734;2023-11-19T02:02:43;9.60;99.90
5578;DHT22;2811;51.900;10.734;2023-11-19T02:05:11;9.80;99.90
5578;DHT22;2811;51.900;10.734;2023-11-19T02:07:38;9.70;99.90
5578;DHT22;2811;51.900;10.734;2023-11-19T02:10:06;9.80;99.90
5578;DHT22;2811;51.900;10.734;2023-11-19T02:12:40;9.90;99.90
5578;DHT22;2811;51.900;10.734;2023-11-19T02:15:08;10.10;99.90
5578;DHT22;2811;51.900;10.734;2023-11-19T02:17:35;10.10;99.90
5578;DHT22;2811;51.900;10.734;2023-11-19T02:20:03;10.20;99.90
5578;DHT22;2811;51.900;10.734;2023-11-19T02:22:32;10.30;99.90
5578;DHT22;2811;51.900;10.734;2023-11-19T02:25:03;10.40;99.90
5578;DHT22;2811;51.900;10.734;2023-11-19T02:27:43;10.40;99.90
5578;DHT22;2811;51.900;10.734;2023-11-19T02:30:11;10.20;99.90
5578;DHT22;2811;51.900;10.734;2023-11-19T02:32:41;10.10;99.90
5578;DHT22;2811;51.900;10.734;2023-11-19T02:35:08;10.00;99.90
5578;DHT22;2811;51.900;10.734;2023-11-19T02:37:35;9.90;99.90
5578;DHT22;2811;51.900;10.734;2023-11-19T02:40:02;10.00;99.90
5578;DHT22;2811;51.900;10.734;2023-11-19T02:42:30;9.90;99.90
5578;DHT22;2811;51.900;10.734;2023-11-19T02:44:58;10.00;99.90
5578;DHT22;2811;51.900;10.734;2023-11-19T02:47:25;10.50;99.90
5578;DHT22;2811;51.900;10.734;2023-11-19T02:49:53;10.00;99.90
5578;DHT22;2811;51.900;10.734;2023-11-19T02:52:20;10.00;99.90
5578;DHT22;2811;51.900;10.734;2023-11-19T02:54:46;10.00;99.90
5578;DHT22;2811;51.900;10.734;2023-11-19T02:57:13;10.10;99.90
5578;DHT22;2811;51.900;10.734;2023-11-19T02:59:40;10.10;99.90
5578;DHT22;2811;51.900;10.734;2023-11-19T03:02:10;10.00;99.90
5578;DHT22;2811;51.900;10.734;2023-11-19T03:04:37;9.90;99.90
5578;DHT22;2811;51.900;10.734;2023-11-19T03:07:05;9.80;99.90
5578;DHT22;2811;51.900;10.734;2023-11-19T03:09:32;9.90;99.90
5578;DHT22;2811;51.900;10.734;2023-11-19T03:11:59;9.80;99.90
5578;DHT22;2811;51.900;10.734;2023-11-19T03:14:26;10.00;99.90
5578;DHT22;2811;51.900;10.734;2023-11-19T03:16:53;10.00;99.90
5578;DHT22;2811;51.900;10.734;2023-11-19T03:19:21;10.20;99.90
5578;DHT22;2811;51.900;10.734;2023-11-19T03:21:48;10.40;99.90
5578;DHT22;2811;51.900;10.734;2023-11-19T03:24:14;10.20;99.90
5578;DHT22;2811;51.900;10.734;2023-11-19T03:26:42;10.20;99.90
5578;DHT22;2811;51.900;10.734;2023-11-19T03:29:09;10.30;99.90
5578;DHT22;2811;51.900;10.734;2023-11-19T03:31:36;10.30;99.90
5578;DHT22;2811;51.900;10.734;2023-11-19T03:34:04;10.30;99.90
5578;DHT22;2811;51.900;10.734;2023-11-19T03:36:34;10.40;99.90
5578;DHT22;2811;51.900;10.734;2023-11-19T03:39:02;10.40;99.90
5578;DHT22;2811;51.900;10.734;2023-11-19T03:41:29;10.50;99.90
5578;DHT22;2811;51.900;10.734;2023-11-19T03:43:56;10.60;99.90
5578;DHT22;2811;51.900;10.734;2023-11-19T03:46:23;10.60;99.90
5578;DHT22;2811;51.900;10.734;2023-11-19T03:48:50;10.70;99.90
5578;DHT22;2811;51.900;10.734;2023-11-19T03:51:17;10.80;99.90
5578;DHT22;2811;51.900;10.734;2023-11-19T03:53:45;10.70;99.90
5578;DHT22;2811;51.900;10.734;2023-11-19T03:56:12;10.80;99.90
5578;DHT22;2811;51.900;10.734;2023-11-19T03:58:39;10.80;99.90
5578;DHT22;2811;51.900;10.734;2023-11-19T04:01:11;10.90;99.90
5578;DHT22;2811;51.900;10.734;2023-11-19T04:03:38;10.80;99.90
5578;DHT22;2811;51.900;10.734;2023-11-19T04:06:06;10.80;99.90
5578;DHT22;2811;51.900;10.734;2023-11-19T04:08:32;10.90;99.90
5578;DHT22;2811;51.900;10.734;2023-11-19T04:11:02;11.00;99.90
5578;DHT22;2811;51.900;10.734;2023-11-19T04:13:29;11.00;99.90
5578;DHT22;2811;51.900;10.734;2023-11-19T04:15:56;11.20;99.90
5578;DHT22;2811;51.900;10.734;2023-11-19T04:18:23;11.20;99.90
5578;DHT22;2811;51.900;10.734;2023-11-19T04:20:50;11.30;99.90
5578;DHT22;2811;51.900;10.734;2023-11-19T04:23:17;11.30;99.90
5578;DHT22;2811;51.900;10.734;2023-11-19T04:25:43;11.20;99.90
5578;DHT22;2811;51.900;10.734;2023-11-19T04:28:12;11.10;99.90
5578;DHT22;2811;51.900;10.734;2023-11-19T04:30:38;11.20;99.90
5578;DHT22;2811;51.900;10.734;2023-11-19T04:33:05;11.30;99.90
5578;DHT22;2811;51.900;10.734;2023-11-19T04:35:32;11.30;99.90
5578;DHT22;2811;51.900;10.734;2023-11-19T04:37:59;11.30;99.90
5578;DHT22;2811;51.900;10.734;2023-11-19T04:40:25;11.30;99.90
5578;DHT22;2811;51.900;10.734;2023-11-19T04:42:52;11.30;99.90
5578;DHT22;2811;51.900;10.734;2023-11-19T04:45:20;11.30;99.90
5578;DHT22;2811;51.900;10.734;2023-11-19T04:47:47;11.40;99.90
5578;DHT22;2811;51.900;10.734;2023-11-19T04:50:14;11.40;99.90
5578;DHT22;2811;51.900;10.734;2023-11-19T04:52:40;11.40;99.90
5578;DHT22;2811;51.900;10.734;2023-11-19T04:55:08;11.40;99.90
5578;DHT22;2811;51.900;10.734;2023-11-19T04:57:37;11.40;99.90
5578;DHT22;2811;51.900;10.734;2023-11-19T05:00:04;11.40;99.90
5578;DHT22;2811;51.900;10.734;2023-11-19T05:02:34;11.40;99.90
5578;DHT22;2811;51.900;10.734;2023-11-19T05:05:01;11.40;99.90
5578;DHT22;2811;51.900;10.734;2023-11-19T05:07:29;11.40;99.90
5578;DHT22;2811;51.900;10.734;2023-11-19T05:09:56;11.40;99.90
5578;DHT22;2811;51.900;10.734;2023-11-19T05:12:23;11.40;99.90
5578;DHT22;2811;51.900;10.734;2023-11-19T05:14:49;11.40;99.90
5578;DHT22;2811;51.900;10.734;2023-11-19T05:17:17;11.50;99.90
5578;DHT22;2811;51.900;10.734;2023-11-19T05:19:46;11.60;99.90
5578;DHT22;2811;51.900;10.734;2023-11-19T05:22:13;11.50;99.90
5578;DHT22;2811;51.900;10.734;2023-11-19T05:24:40;11.50;99.90
5578;DHT22;2811;51.900;10.734;2023-11-19T05:27:07;11.50;99.90
5578;DHT22;2811;51.900;10.734;2023-11-19T05:29:34;11.50;99.90
5578;DHT22;2811;51.900;10.734;2023-11-19T05:32:01;11.50;99.90
5578;DHT22;2811;51.900;10.734;2023-11-19T05:34:27;11.80;99.90
5578;DHT22;2811;51.900;10.734;2023-11-19T05:36:56;11.50;99.90
5578;DHT22;2811;51.900;10.734;2023-11-19T05:39:23;11.50;99.90
5578;DHT22;2811;51.900;10.734;2023-11-19T05:41:50;11.70;99.90
5578;DHT22;2811;51.900;10.734;2023-11-19T05:44:17;11.50;99.90
5578;DHT22;2811;51.900;10.734;2023-11-19T05:46:44;11.50;99.90
5578;DHT22;2811;51.900;10.734;2023-11-19T05:49:11;11.50;99.90
5578;DHT22;2811;51.900;10.734;2023-11-19T05:51:39;11.50;99.90
5578;DHT22;2811;51.900;10.734;2023-11-19T05:54:08;11.40;99.90
5578;DHT22;2811;51.900;10.734;2023-11-19T05:56:35;11.40;99.90
5578;DHT22;2811;51.900;10.734;2023-11-19T05:59:02;11.40;99.90
5578;DHT22;2811;51.900;10.734;2023-11-19T06:01:32;11.40;99.90
5578;DHT22;2811;51.900;10.734;2023-11-19T06:03:59;11.30;99.90
5578;DHT22;2811;51.900;10.734;2023-11-19T06:06:26;11.30;99.90
5578;DHT22;2811;51.900;10.734;2023-11-19T06:08:53;11.30;99.90
5578;DHT22;2811;51.900;10.734;2023-11-19T06:11:21;11.20;99.90
5578;DHT22;2811;51.900;10.734;2023-11-19T06:13:48;11.20;99.90
5578;DHT22;2811;51.900;10.734;2023-11-19T06:16:15;11.20;99.90
5578;DHT22;2811;51.900;10.734;2023-11-19T06:18:42;11.10;99.90
5578;DHT22;2811;51.900;10.734;2023-11-19T06:21:09;11.10;99.90
5578;DHT22;2811;51.900;10.734;2023-11-19T06:23:36;11.20;99.90
5578;DHT22;2811;51.900;10.734;2023-11-19T06:26:02;11.40;99.90
5578;DHT22;2811;51.900;10.734;2023-11-19T06:28:32;11.30;99.90
5578;DHT22;2811;51.900;10.734;2023-11-19T06:31:03;11.30;99.90
5578;DHT22;2811;51.900;10.734;2023-11-19T06:33:29;11.30;99.90
5578;DHT22;2811;51.900;10.734;2023-11-19T06:35:56;11.30;99.90
5578;DHT22;2811;51.900;10.734;2023-11-19T06:38:23;11.30;99.90
5578;DHT22;2811;51.900;10.734;2023-11-19T06:40:50;11.20;99.90
5578;DHT22;2811;51.900;10.734;2023-11-19T06:43:16;11.20;99.90
5578;DHT22;2811;51.900;10.734;2023-11-19T06:45:44;11.20;99.90
5578;DHT22;2811;51.900;10.734;2023-11-19T06:48:11;11.20;99.90
5578;DHT22;2811;51.900;10.734;2023-11-19T06:50:38;11.30;99.90
5578;DHT22;2811;51.900;10.734;2023-11-19T06:53:05;11.40;99.90
5578;DHT22;2811;51.900;10.734;2023-11-19T06:55:35;11.40;99.90
5578;DHT22;2811;51.900;10.734;2023-11-19T06:58:02;11.70;99.90
5578;DHT22;2811;51.900;10.734;2023-11-19T07:00:29;11.60;99.90
5578;DHT22;2811;51.900;10.734;2023-11-19T07:02:59;11.40;99.90
5578;DHT22;2811;51.900;10.734;2023-11-19T07:05:26;11.50;99.90
5578;DHT22;2811;51.900;10.734;2023-11-19T07:07:53;11.50;99.90
5578;DHT22;2811;51.900;10.734;2023-11-19T07:10:21;11.50;99.90
5578;DHT22;2811;51.900;10.734;2023-11-19T07:12:47;11.50;99.90
5578;DHT22;2811;51.900;10.734;2023-11-19T07:15:15;12.00;99.90
5578;DHT22;2811;51.900;10.734;2023-11-19T07:17:43;12.00;99.90
5578;DHT22;2811;51.900;10.734;2023-11-19T07:20:12;11.60;99.90
5578;DHT22;2811;51.900;10.734;2023-11-19T07:22:42;11.60;99.90
5578;DHT22;2811;51.900;10.734;2023-11-19T07:25:11;11.60;99.90
5578;DHT22;2811;51.900;10.734;2023-11-19T07:27:38;11.60;99.90
5578;DHT22;2811;51.900;10.734;2023-11-19T07:30:06;11.60;99.90
5578;DHT22;2811;51.900;10.734;2023-11-19T07:32:33;11.60;99.90
5578;DHT22;2811;51.900;10.734;2023-11-19T07:35:00;11.60;99.90
5578;DHT22;2811;51.900;10.734;2023-11-19T07:37:28;11.60;99.90
5578;DHT22;2811;51.900;10.734;2023-11-19T07:39:55;11.60;99.90
5578;DHT22;2811;51.900;10.734;2023-11-19T07:42:22;11.70;99.90
5578;DHT22;2811;51.900;10.734;2023-11-19T07:44:49;11.60;99.90
5578;DHT22;2811;51.900;10.734;2023-11-19T07:47:16;11.60;99.90
5578;DHT22;2811;51.900;10.734;2023-11-19T07:49:43;11.70;99.90
5578;DHT22;2811;51.900;10.734;2023-11-19T07:52:10;11.80;99.90
5578;DHT22;2811;51.900;10.734;2023-11-19T07:54:38;11.80;99.90
5578;DHT22;2811;51.900;10.734;2023-11-19T07:57:05;11.90;99.90
5578;DHT22;2811;51.900;10.734;2023-11-19T07:59:31;12.00;99.90
5578;DHT22;2811;51.900;10.734;2023-11-19T08:01:58;12.00;99.90
5578;DHT22;2811;51.900;10.734;2023-11-19T08:04:25;12.00;99.90
5578;DHT22;2811;51.900;10.734;2023-11-19T08:06:52;12.10;99.90
5578;DHT22;2811;51.900;10.734;2023-11-19T08:09:18;12.30;99.90
5578;DHT22;2811;51.900;10.734;2023-11-19T08:11:46;12.40;99.90
5578;DHT22;2811;51.900;10.734;2023-11-19T08:14:13;12.10;99.90
5578;DHT22;2811;51.900;10.734;2023-11-19T08:16:40;12.20;99.90
5578;DHT22;2811;51.900;10.734;2023-11-19T08:19:07;12.20;99.90
5578;DHT22;2811;51.900;10.734;2023-11-19T08:21:34;12.30;99.90
5578;DHT22;2811;51.900;10.734;2023-11-19T08:24:01;12.20;99.90
5578;DHT22;2811;51.900;10.734;2023-11-19T08:26:28;12.30;99.90
5578;DHT22;2811;51.900;10.734;2023-11-19T08:28:56;12.40;99.90
5578;DHT22;2811;51.900;10.734;2023-11-19T08:31:24;12.60;99.90
5578;DHT22;2811;51.900;10.734;2023-11-19T08:33:51;12.60;99.90
5578;DHT22;2811;51.900;10.734;2023-11-19T08:36:18;12.70;99.90
5578;DHT22;2811;51.900;10.734;2023-11-19T08:38:45;12.70;99.90
5578;DHT22;2811;51.900;10.734;2023-11-19T08:41:13;12.90;99.90
5578;DHT22;2811;51.900;10.734;2023-11-19T08:43:40;13.10;99.90
5578;DHT22;2811;51.900;10.734;2023-11-19T08:46:11;13.10;99.90
5578;DHT22;2811;51.900;10.734;2023-11-19T08:48:37;13.10;99.90
5578;DHT22;2811;51.900;10.734;2023-11-19T08:51:05;13.10;99.90
5578;DHT22;2811;51.900;10.734;2023-11-19T08:53:31;13.00;99.90
5578;DHT22;2811;51.900;10.734;2023-11-19T08:55:58;12.90;99.90
5578;DHT22;2811;51.900;10.734;2023-11-19T08:58:25;12.90;99.90
5578;DHT22;2811;51.900;10.734;2023-11-19T09:00:52;12.90;99.90
5578;DHT22;2811;51.900;10.734;2023-11-19T09:03:20;13.00;99.90
5578;DHT22;2811;51.900;10.734;2023-11-19T09:05:47;13.10;99.90
5578;DHT22;2811;51.900;10.734;2023-11-19T09:08:14;13.30;99.90
5578;DHT22;2811;51.900;10.734;2023-11-19T09:10:40;13.50;99.90
5578;DHT22;2811;51.900;10.734;2023-11-19T09:13:07;13.70;99.90
5578;DHT22;2811;51.900;10.734;2023-11-19T09:15:34;13.70;99.90
5578;DHT22;2811;51.900;10.734;2023-11-19T09:18:01;13.60;99.90
5578;DHT22;2811;51.900;10.734;2023-11-19T09:20:29;13.60;99.90
5578;DHT22;2811;51.900;10.734;2023-11-19T09:23:03;13.70;99.90
5578;DHT22;2811;51.900;10.734;2023-11-19T09:25:29;13.70;99.90
5578;DHT22;2811;51.900;10.734;2023-11-19T09:27:56;13.80;99.90
5578;DHT22;2811;51.900;10.734;2023-11-19T09:30:23;13.90;99.90
5578;DHT22;2811;51.900;10.734;2023-11-19T09:32:49;13.90;99.90
5578;DHT22;2811;51.900;10.734;2023-11-19T09:35:16;13.80;99.90
5578;DHT22;2811;51.900;10.734;2023-11-19T09:37:44;13.70;99.90
5578;DHT22;2811;51.900;10.734;2023-11-19T09:40:11;13.70;99.90
5578;DHT22;2811;51.900;10.734;2023-11-19T09:42:43;13.60;99.90
5578;DHT22;2811;51.900;10.734;2023-11-19T09:45:13;13.60;99.90
5578;DHT22;2811;51.900;10.734;2023-11-19T09:47:42;13.60;99.90
5578;DHT22;2811;51.900;10.734;2023-11-19T09:50:11;13.50;99.90
5578;DHT22;2811;51.900;10.734;2023-11-19T09:52:40;13.50;99.90
5578;DHT22;2811;51.900;10.734;2023-11-19T09:55:09;13.40;99.90
5578;DHT22;2811;51.900;10.734;2023-11-19T09:57:37;13.30;99.90
5578;DHT22;2811;51.900;10.734;2023-11-19T10:00:05;13.30;99.90
5578;DHT22;2811;51.900;10.734;2023-11-19T10:02:33;13.30;99.90
5578;DHT22;2811;51.900;10.734;2023-11-19T10:05:04;13.40;99.90
5578;DHT22;2811;51.900;10.734;2023-11-19T10:07:32;13.40;99.90
5578;DHT22;2811;51.900;10.734;2023-11-19T10:09:59;13.50;99.90
5578;DHT22;2811;51.900;10.734;2023-11-19T10:12:28;13.50;99.90
5578;DHT22;2811;51.900;10.734;2023-11-19T10:14:56;13.40;99.90
5578;DHT22;2811;51.900;10.734;2023-11-19T10:17:27;13.50;99.90
5578;DHT22;2811;51.900;10.734;2023-11-19T10:19:55;13.60;99.90
5578;DHT22;2811;51.900;10.734;2023-11-19T10:22:22;13.80;99.90
5578;DHT22;2811;51.900;10.734;2023-11-19T10:24:49;13.70;99.90
5578;DHT22;2811;51.900;10.734;2023-11-19T10:27:17;13.90;99.90
5578;DHT22;2811;51.900;10.734;2023-11-19T10:29:46;13.90;99.90
5578;DHT22;2811;51.900;10.734;2023-11-19T10:32:13;13.90;99.90
5578;DHT22;2811;51.900;10.734;2023-11-19T10:34:40;14.00;99.90
5578;DHT22;2811;51.900;10.734;2023-11-19T10:37:07;14.00;99.90
5578;DHT22;2811;51.900;10.734;2023-11-19T10:39:52;13.90;99.90
5578;DHT22;2811;51.900;10.734;2023-11-19T10:42:19;13.90;99.90
5578;DHT22;2811;51.900;10.734;2023-11-19T10:44:48;13.90;99.90
5578;DHT22;2811;51.900;10.734;2023-11-19T10:47:15;13.90;99.90
5578;DHT22;2811;51.900;10.734;2023-11-19T10:49:43;14.00;99.90
5578;DHT22;2811;51.900;10.734;2023-11-19T10:52:12;14.10;99.90
5578;DHT22;2811;51.900;10.734;2023-11-19T10:54:43;14.00;99.90
5578;DHT22;2811;51.900;10.734;2023-11-19T10:57:12;14.00;99.90
5578;DHT22;2811;51.900;10.734;2023-11-19T10:59:43;14.10;99.90
5578;DHT22;2811;51.900;10.734;2023-11-19T11:02:17;13.90;99.90
5578;DHT22;2811;51.900;10.734;2023-11-19T11:04:46;13.90;99.90
5578;DHT22;2811;51.900;10.734;2023-11-19T11:07:14;13.90;99.90
5578;DHT22;2811;51.900;10.734;2023-11-19T11:09:42;13.90;99.90
5578;DHT22;2811;51.900;10.734;2023-11-19T11:12:09;13.80;99.90
5578;DHT22;2811;51.900;10.734;2023-11-19T11:14:38;13.80;99.90
5578;DHT22;2811;51.900;10.734;2023-11-19T11:17:06;13.80;99.90
5578;DHT22;2811;51.900;10.734;2023-11-19T11:19:36;13.70;99.90
5578;DHT22;2811;51.900;10.734;2023-11-19T11:22:04;13.70;99.90
5578;DHT22;2811;51.900;10.734;2023-11-19T11:25:04;13.70;99.90
5578;DHT22;2811;51.900;10.734;2023-11-19T11:27:50;13.80;99.90
5578;DHT22;2811;51.900;10.734;2023-11-19T11:30:29;13.90;99.90
5578;DHT22;2811;51.900;10.734;2023-11-19T11:33:10;14.00;99.90
5578;DHT22;2811;51.900;10.734;2023-11-19T11:35:51;14.00;99.90
5578;DHT22;2811;51.900;10.734;2023-11-19T11:38:22;14.00;99.90
5578;DHT22;2811;51.900;10.734;2023-11-19T11:41:17;14.10;99.90
5578;DHT22;2811;51.900;10.734;2023-11-19T11:43:46;14.00;99.90
5578;DHT22;2811;51.900;10.734;2023-11-19T11:49:12;13.90;99.90
5578;DHT22;2811;51.900;10.734;2023-11-19T11:52:02;14.00;99.90
5578;DHT22;2811;51.900;10.734;2023-11-19T11:54:32;14.00;99.90
5578;DHT22;2811;51.900;10.734;2023-11-19T11:57:17;13.80;99.90
5578;DHT22;2811;51.900;10.734;2023-11-19T11:59:48;13.80;99.90
5578;DHT22;2811;51.900;10.734;2023-11-19T12:02:16;13.90;99.90
5578;DHT22;2811;51.900;10.734;2023-11-19T12:04:46;13.90;99.90
5578;DHT22;2811;51.900;10.734;2023-11-19T12:07:17;13.90;99.90
5578;DHT22;2811;51.900;10.734;2023-11-19T12:09:48;13.80;99.90
5578;DHT22;2811;51.900;10.734;2023-11-19T12:12:20;13.80;99.90
5578;DHT22;2811;51.900;10.734;2023-11-19T12:15:04;13.80;99.90
5578;DHT22;2811;51.900;10.734;2023-11-19T12:17:42;13.80;99.90
5578;DHT22;2811;51.900;10.734;2023-11-19T12:20:14;13.80;99.90
5578;DHT22;2811;51.900;10.734;2023-11-19T12:22:44;13.80;99.90
5578;DHT22;2811;51.900;10.734;2023-11-19T12:25:12;13.80;99.90
5578;DHT22;2811;51.900;10.734;2023-11-19T12:27:40;13.70;99.90
5578;DHT22;2811;51.900;10.734;2023-11-19T12:30:08;13.70;99.90
5578;DHT22;2811;51.900;10.734;2023-11-19T12:32:39;13.70;99.90
5578;DHT22;2811;51.900;10.734;2023-11-19T12:35:07;13.70;99.90
5578;DHT22;2811;51.900;10.734;2023-11-19T12:37:39;13.70;99.90
5578;DHT22;2811;51.900;10.734;2023-11-19T12:40:13;13.70;99.90
5578;DHT22;2811;51.900;10.734;2023-11-19T12:42:40;13.70;99.90
5578;DHT22;2811;51.900;10.734;2023-11-19T12:45:08;13.80;99.90
5578;DHT22;2811;51.900;10.734;2023-11-19T12:47:36;13.80;99.90
5578;DHT22;2811;51.900;10.734;2023-11-19T12:50:04;13.80;99.90
5578;DHT22;2811;51.900;10.734;2023-11-19T12:52:31;13.90;99.90
5578;DHT22;2811;51.900;10.734;2023-11-19T12:54:58;13.80;99.90
5578;DHT22;2811;51.900;10.734;2023-11-19T12:57:37;13.70;99.90
5578;DHT22;2811;51.900;10.734;2023-11-19T13:00:05;13.70;99.90
5578;DHT22;2811;51.900;10.734;2023-11-19T13:02:45;13.60;99.90
5578;DHT22;2811;51.900;10.734;2023-11-19T13:05:23;13.60;99.90
5578;DHT22;2811;51.900;10.734;2023-11-19T13:07:51;13.50;99.90
5578;DHT22;2811;51.900;10.734;2023-11-19T13:10:26;13.50;99.90
5578;DHT22;2811;51.900;10.734;2023-11-19T13:13:04;13.50;99.90
5578;DHT22;2811;51.900;10.734;2023-11-19T13:15:31;13.40;99.90
5578;DHT22;2811;51.900;10.734;2023-11-19T13:17:58;13.40;99.90
5578;DHT22;2811;51.900;10.734;2023-11-19T13:20:25;13.30;99.90
5578;DHT22;2811;51.900;10.734;2023-11-19T13:22:58;13.30;99.90
5578;DHT22;2811;51.900;10.734;2023-11-19T13:25:25;13.30;99.90
5578;DHT22;2811;51.900;10.734;2023-11-19T13:27:53;13.20;99.90
5578;DHT22;2811;51.900;10.734;2023-11-19T13:30:22;13.20;99.90
5578;DHT22;2811;51.900;10.734;2023-11-19T13:32:49;13.20;99.90
5578;DHT22;2811;51.900;10.734;2023-11-19T13:35:16;13.20;99.90
5578;DHT22;2811;51.900;10.734;2023-11-19T13:37:43;13.10;99.90
5578;DHT22;2811;51.900;10.734;2023-11-19T13:40:11;13.20;99.90
5578;DHT22;2811;51.900;10.734;2023-11-19T13:42:40;13.10;99.90
5578;DHT22;2811;51.900;10.734;2023-11-19T13:45:12;13.20;99.90
5578;DHT22;2811;51.900;10.734;2023-11-19T13:47:42;13.10;99.90
5578;DHT22;2811;51.900;10.734;2023-11-19T13:50:10;13.10;99.90
5578;DHT22;2811;51.900;10.734;2023-11-19T13:52:37;13.10;99.90
5578;DHT22;2811;51.900;10.734;2023-11-19T13:55:06;13.20;99.90
5578;DHT22;2811;51.900;10.734;2023-11-19T13:57:34;13.20;99.90
5578;DHT22;2811;51.900;10.734;2023-11-19T14:00:01;13.20;99.90
5578;DHT22;2811;51.900;10.734;2023-11-19T14:02:30;13.10;99.90
5578;DHT22;2811;51.900;10.734;2023-11-19T14:04:58;13.10;99.90
5578;DHT22;2811;51.900;10.734;2023-11-19T14:07:25;13.20;99.90
5578;DHT22;2811;51.900;10.734;2023-11-19T14:09:52;13.20;99.90
5578;DHT22;2811;51.900;10.734;2023-11-19T14:12:19;13.20;99.90
5578;DHT22;2811;51.900;10.734;2023-11-19T14:14:46;13.30;99.90
5578;DHT22;2811;51.900;10.734;2023-11-19T14:17:13;13.20;99.90
5578;DHT22;2811;51.900;10.734;2023-11-19T14:19:40;13.10;99.90
5578;DHT22;2811;51.900;10.734;2023-11-19T14:22:09;13.20;99.90
5578;DHT22;2811;51.900;10.734;2023-11-19T14:24:35;13.10;99.90
5578;DHT22;2811;51.900;10.734;2023-11-19T14:27:02;13.10;99.90
5578;DHT22;2811;51.900;10.734;2023-11-19T14:29:29;13.10;99.90
5578;DHT22;2811;51.900;10.734;2023-11-19T14:31:56;13.00;99.90
5578;DHT22;2811;51.900;10.734;2023-11-19T14:34:24;13.00;99.90
5578;DHT22;2811;51.900;10.734;2023-11-19T14:36:51;13.00;99.90
5578;DHT22;2811;51.900;10.734;2023-11-19T14:39:20;12.90;99.90
5578;DHT22;2811;51.900;10.734;2023-11-19T14:41:47;12.70;99.90
5578;DHT22;2811;51.900;10.734;2023-11-19T14:44:14;12.70;99.90
5578;DHT22;2811;51.900;10.734;2023-11-19T14:46:41;12.70;99.90
5578;DHT22;2811;51.900;10.734;2023-11-19T14:49:08;12.70;99.90
5578;DHT22;2811;51.900;10.734;2023-11-19T14:51:35;12.70;99.90
5578;DHT22;2811;51.900;10.734;2023-11-19T14:54:03;12.60;99.90
5578;DHT22;2811;51.900;10.734;2023-11-19T14:56:32;12.60;99.90
5578;DHT22;2811;51.900;10.734;2023-11-19T14:58:59;12.70;99.90
5578;DHT22;2811;51.900;10.734;2023-11-19T15:01:25;12.60;99.90
5578;DHT22;2811;51.900;10.734;2023-11-19T15:03:54;12.60;99.90
5578;DHT22;2811;51.900;10.734;2023-11-19T15:06:23;12.60;99.90
5578;DHT22;2811;51.900;10.734;2023-11-19T15:08:51;12.50;99.90
5578;DHT22;2811;51.900;10.734;2023-11-19T15:11:17;12.50;99.90
5578;DHT22;2811;51.900;10.734;2023-11-19T15:13:46;12.50;99.90
5578;DHT22;2811;51.900;10.734;2023-11-19T15:16:12;12.40;99.90
5578;DHT22;2811;51.900;10.734;2023-11-19T15:18:40;12.30;99.90
5578;DHT22;2811;51.900;10.734;2023-11-19T15:21:07;12.20;99.90
5578;DHT22;2811;51.900;10.734;2023-11-19T15:23:34;12.10;99.90
5578;DHT22;2811;51.900;10.734;2023-11-19T15:26:02;12.10;99.90
5578;DHT22;2811;51.900;10.734;2023-11-19T15:28:29;12.00;99.90
5578;DHT22;2811;51.900;10.734;2023-11-19T15:30:57;12.00;99.90
5578;DHT22;2811;51.900;10.734;2023-11-19T15:33:24;11.90;99.90
5578;DHT22;2811;51.900;10.734;2023-11-19T15:35:51;11.90;99.90
5578;DHT22;2811;51.900;10.734;2023-11-19T15:38:17;11.80;99.90
5578;DHT22;2811;51.900;10.734;2023-11-19T15:40:44;11.80;99.90
5578;DHT22;2811;51.900;10.734;2023-11-19T15:43:11;11.70;99.90
5578;DHT22;2811;51.900;10.734;2023-11-19T15:45:38;11.70;99.90
5578;DHT22;2811;51.900;10.734;2023-11-19T15:48:06;11.90;99.90
5578;DHT22;2811;51.900;10.734;2023-11-19T15:50:33;11.60;99.90
5578;DHT22;2811;51.900;10.734;2023-11-19T15:52:59;11.60;99.90
5578;DHT22;2811;51.900;10.734;2023-11-19T15:55:27;11.70;99.90
5578;DHT22;2811;51.900;10.734;2023-11-19T15:57:54;11.80;99.90